Time;durP1;ratioP1;P1;durP2;ratioP2;P2;SDS_P1;SDS_P2;PMS_P1;PMS_P2;Temp;Humidity;BMP_temperature;BMP_pressure;BME280_temperature;BME280_humidity;BME280_pressure;Samples;Min_cycle;Max_cycle;Signal;HPM_P1;HPM_P2
2022/10/15 00:01:18;;;;;;;;;;;;;;;;;;5075252;28;19916;-79
2022/10/15 00:03:43;;;;;;;;;;;;;;;;;;5087466;28;19920;-79
2022/10/15 00:06:10;;;;;;;;;;;;;;;;;;5075041;28;20015;-79
2022/10/15 00:08:36;;;;;;;;;;;;;;;;;;5061460;28;19916;-78
2022/10/15 00:11:21;;;;;;;;;;;;;;;;;;5084871;28;20100;-79
2022/10/15 00:13:47;;;;;;;;;;;;;;;;;;5074426;28;19913;-78
2022/10/15 00:16:15;;;;;;;;;;;;;;;;;;5080791;28;20206;-78
2022/10/15 00:18:41;;;;;;;;;;;;;;;;;;5087200;28;19924;-79
2022/10/15 00:21:07;;;;;;;;;;;;;;;;;;5088239;28;19912;-79
2022/10/15 00:23:32;;;;;;;;;;;;;;;;;;5061395;28;19928;-79
2022/10/15 00:26:17;;;;;;;;;;;;;;;;;;5083592;28;19923;-78
2022/10/15 00:28:42;;;;;;;;;;;;;;;;;;5081881;28;19934;-79
2022/10/15 00:31:12;;;;;;;;;;;;;;;;;;5087245;28;19987;-78
2022/10/15 00:33:37;;;;;;;;;;;;;;;;;;5076343;28;19996;-79
2022/10/15 00:36:07;;;;;;;;;;;;;;;;;;5077372;28;19924;-79
2022/10/15 00:38:33;;;;;;;;;;;;;;;;;;5077981;28;19987;-79
2022/10/15 00:40:58;;;;;;;;;;;;;;;;;;5074891;28;19926;-79
2022/10/15 00:43:53;;;;;;;;;;;;;;;;;;5079607;28;19913;-79
2022/10/15 00:46:21;;;;;;;;;;;;;;;;;;5056447;28;20078;-79
2022/10/15 00:48:48;;;;;;;;;;;;;;;;;;5080599;28;19960;-79
2022/10/15 00:51:14;;;;;;;;;;;;;;;;;;5081198;28;19912;-79
2022/10/15 00:53:39;;;;;;;;;;;;;;;;;;5089357;28;19932;-80
2022/10/15 00:56:05;;;;;;;;;;;;;;;;;;5073400;28;20117;-79
2022/10/15 00:58:31;;;;;;;;;;;;;;;;;;5075775;28;19943;-79
2022/10/15 01:00:56;;;;;;;;;;;;;;;;;;5056695;28;19916;-79
2022/10/15 01:03:22;;;;;;;;;;;;;;;;;;5076872;28;20197;-79
2022/10/15 01:05:49;;;;;;;;;;;;;;;;;;5077928;28;20128;-79
2022/10/15 01:08:14;;;;;;;;;;;;;;;;;;5077709;28;19927;-79
2022/10/15 01:10:52;;;;;;;;;;;;;;;;;;5079295;28;19924;-79
2022/10/15 01:13:23;;;;;;;;;;;;;;;;;;5084711;28;19956;-79
2022/10/15 01:15:49;;;;;;;;;;;;;;;;;;5086588;28;19924;-80
2022/10/15 01:18:16;;;;;;;;;;;;;;;;;;5062259;28;19923;-80
2022/10/15 01:20:56;;;;;;;;;;;;;;;;;;5079265;28;20113;-80
2022/10/15 01:23:40;;;;;;;;;;;;;;;;;;5074186;28;19913;-80
2022/10/15 01:26:14;;;;;;;;;;;;;;;;;;5089603;28;19931;-80
2022/10/15 01:28:46;;;;;;;;;;;;;;;;;;5076261;28;19916;-80
2022/10/15 01:31:20;;;;;;;;;;;;;;;;;;5077664;28;19971;-80
2022/10/15 01:34:08;;;;;;;;;;;;;;;;;;5075263;28;19957;-81
2022/10/15 01:36:39;;;;;;;;;;;;;;;;;;5073364;28;19912;-81
2022/10/15 01:39:19;;;;;;;;;;;;;;;;;;5083575;28;19921;-80
2022/10/15 01:41:51;;;;;;;;;;;;;;;;;;5057754;28;19935;-81
2022/10/15 01:44:22;;;;;;;;;;;;;;;;;;5085625;28;19991;-80
2022/10/15 01:46:50;;;;;;;;;;;;;;;;;;5082657;28;19913;-80
2022/10/15 01:49:20;;;;;;;;;;;;;;;;;;5076734;28;20678;-80
2022/10/15 01:51:46;;;;;;;;;;;;;;;;;;5073454;28;19912;-80
2022/10/15 01:54:14;;;;;;;;;;;;;;;;;;5072672;28;19992;-80
2022/10/15 01:56:39;;;;;;;;;;;;;;;;;;5057302;28;20220;-80
2022/10/15 01:59:05;;;;;;;;;;;;;;;;;;5075482;28;19921;-81
2022/10/15 02:01:31;;;;;;;;;;;;;;;;;;5076078;28;19917;-81
2022/10/15 02:03:56;;;;;;;;;;;;;;;;;;5078382;28;19913;-81
2022/10/15 02:06:27;;;;;;;;;;;;;;;;;;5081212;28;19946;-80
2022/10/15 02:09:11;;;;;;;;;;;;;;;;;;5087338;28;20017;-81
2022/10/15 02:11:49;;;;;;;;;;;;;;;;;;5093243;28;19916;-80
2022/10/15 02:14:18;;;;;;;;;;;;;;;;;;5078736;28;19923;-80
2022/10/15 02:16:52;;;;;;;;;;;;;;;;;;5070327;28;19915;-81
2022/10/15 02:19:23;;;;;;;;;;;;;;;;;;5076456;28;20224;-80
2022/10/15 02:22:05;;;;;;;;;;;;;;;;;;5087943;28;20378;-80
2022/10/15 02:24:42;;;;;;;;;;;;;;;;;;5062089;28;20286;-80
2022/10/15 02:27:08;;;;;;;;;;;;;;;;;;5076120;28;20270;-80
2022/10/15 02:29:35;;;;;;;;;;;;;;;;;;5075613;28;19939;-81
2022/10/15 02:32:02;;;;;;;;;;;;;;;;;;5074902;28;19909;-80
2022/10/15 02:34:29;;;;;;;;;;;;;;;;;;5079303;28;19916;-80
2022/10/15 02:36:56;;;;;;;;;;;;;;;;;;5062646;28;20310;-81
2022/10/15 02:39:23;;;;;;;;;;;;;;;;;;5083389;28;19916;-81
2022/10/15 02:41:48;;;;;;;;;;;;;;;;;;5083889;28;19927;-81
2022/10/15 02:44:14;;;;;;;;;;;;;;;;;;5092369;28;19924;-81
2022/10/15 02:46:39;;;;;;;;;;;;;;;;;;5080445;28;20224;-80
2022/10/15 02:49:04;;;;;;;;;;;;;;;;;;5077883;28;20023;-83
2022/10/15 02:51:34;;;;;;;;;;;;;;;;;;5082258;28;20071;-81
2022/10/15 02:53:59;;;;;;;;;;;;;;;;;;5078951;28;19913;-81
2022/10/15 02:56:25;;;;;;;;;;;;;;;;;;5078942;28;19912;-82
2022/10/15 02:58:50;;;;;;;;;;;;;;;;;;5081871;28;19916;-81
2022/10/15 03:01:15;;;;;;;;;;;;;;;;;;5063745;28;19928;-80
2022/10/15 03:03:41;;;;;;;;;;;;;;;;;;5089724;28;19924;-81
2022/10/15 03:06:06;;;;;;;;;;;;;;;;;;5084565;28;19924;-83
2022/10/15 03:08:31;;;;;;;;;;;;;;;;;;5082366;28;19913;-81
2022/10/15 03:10:59;;;;;;;;;;;;;;;;;;5084791;28;19975;-80
2022/10/15 03:13:24;;;;;;;;;;;;;;;;;;5064446;28;19917;-81
2022/10/15 03:15:49;;;;;;;;;;;;;;;;;;5080245;28;19909;-81
2022/10/15 03:18:15;;;;;;;;;;;;;;;;;;5076888;28;19913;-83
2022/10/15 03:20:40;;;;;;;;;;;;;;;;;;5063733;28;19912;-83
2022/10/15 03:23:05;;;;;;;;;;;;;;;;;;5082495;28;19958;-85
2022/10/15 03:25:30;;;;;;;;;;;;;;;;;;5069480;28;19991;-85
2022/10/15 03:27:56;;;;;;;;;;;;;;;;;;5080648;28;19916;-89
2022/10/15 03:30:21;;;;;;;;;;;;;;;;;;5082338;28;20014;-84
2022/10/15 03:32:46;;;;;;;;;;;;;;;;;;5086400;28;19940;-83
2022/10/15 03:35:12;;;;;;;;;;;;;;;;;;5064186;28;20246;-83
2022/10/15 03:37:37;;;;;;;;;;;;;;;;;;5094554;28;19916;-85
2022/10/15 03:40:03;;;;;;;;;;;;;;;;;;5090926;28;19959;-83
2022/10/15 03:42:28;;;;;;;;;;;;;;;;;;5079599;28;19916;-85
2022/10/15 03:44:54;;;;;;;;;;;;;;;;;;5071046;28;19916;-89
2022/10/15 03:47:19;;;;;;;;;;;;;;;;;;5076707;28;19979;-81
2022/10/15 03:49:44;;;;;;;;;;;;;;;;;;5081059;28;19924;-89
2022/10/15 03:52:09;;;;;;;;;;;;;;;;;;5087131;28;20269;-86
2022/10/15 03:54:34;;;;;;;;;;;;;;;;;;5080354;28;20082;-88
2022/10/15 03:57:00;;;;;;;;;;;;;;;;;;5095809;28;19912;-83
2022/10/15 03:59:25;;;;;;;;;;;;;;;;;;5083414;28;19955;-88
2022/10/15 04:01:50;;;;;;;;;;;;;;;;;;5085123;28;19914;-91
2022/10/15 04:04:15;;;;;;;;;;;;;;;;;;5086283;28;19924;-86
2022/10/15 04:06:41;;;;;;;;;;;;;;;;;;5083577;28;19944;-83
2022/10/15 04:09:06;;;;;;;;;;;;;;;;;;5089028;28;19998;-86
2022/10/15 04:11:31;;;;;;;;;;;;;;;;;;5057482;28;20004;-86
2022/10/15 04:13:57;;;;;;;;;;;;;;;;;;5088586;28;20193;-83
2022/10/15 04:16:22;;;;;;;;;;;;;;;;;;5077361;28;19947;-89
2022/10/15 04:18:48;;;;;;;;;;;;;;;;;;5081068;28;19912;-84
2022/10/15 04:21:13;;;;;;;;;;;;;;;;;;5070760;28;19923;-91
2022/10/15 04:23:38;;;;;;;;;;;;;;;;;;5088754;28;19982;-83
2022/10/15 04:26:03;;;;;;;;;;;;;;;;;;5095126;28;19957;-88
2022/10/15 04:28:29;;;;;;;;;;;;;;;;;;5065948;28;19924;-93
2022/10/15 04:30:55;;;;;;;;;;;;;;;;;;5080225;28;19940;-82
2022/10/15 04:33:21;;;;;;;;;;;;;;;;;;5064279;28;19954;-81
2022/10/15 04:35:46;;;;;;;;;;;;;;;;;;5081766;28;19920;-91
2022/10/15 04:38:11;;;;;;;;;;;;;;;;;;5076169;28;19963;-82
2022/10/15 04:40:37;;;;;;;;;;;;;;;;;;5077623;28;19924;-86
2022/10/15 04:43:02;;;;;;;;;;;;;;;;;;5075664;28;19913;-88
2022/10/15 04:45:27;;;;;;;;;;;;;;;;;;5068064;28;19924;-85
2022/10/15 04:47:58;;;;;;;;;;;;;;;;;;5093866;28;20248;-86
2022/10/15 04:50:23;;;;;;;;;;;;;;;;;;5079118;28;19979;-93
2022/10/15 04:52:48;;;;;;;;;;;;;;;;;;5058578;28;19925;-88
2022/10/15 04:55:14;;;;;;;;;;;;;;;;;;5072941;28;20375;-81
2022/10/15 04:57:39;;;;;;;;;;;;;;;;;;5084080;28;19991;-83
2022/10/15 05:00:04;;;;;;;;;;;;;;;;;;5088562;28;19931;-87
2022/10/15 05:02:31;;;;;;;;;;;;;;;;;;5063967;28;19920;-87
2022/10/15 05:04:57;;;;;;;;;;;;;;;;;;5087550;28;19921;-84
2022/10/15 05:07:22;;;;;;;;;;;;;;;;;;5077430;28;20272;-85
2022/10/15 05:09:47;;;;;;;;;;;;;;;;;;5079340;28;19924;-82
2022/10/15 05:12:12;;;;;;;;;;;;;;;;;;5084243;28;20027;-83
2022/10/15 05:14:38;;;;;;;;;;;;;;;;;;5081528;28;19913;-83
2022/10/15 05:17:03;;;;;;;;;;;;;;;;;;5080338;28;19983;-80
2022/10/15 05:19:28;;;;;;;;;;;;;;;;;;5079998;28;19916;-82
2022/10/15 05:21:53;;;;;;;;;;;;;;;;;;5075399;28;19997;-83
2022/10/15 05:24:19;;;;;;;;;;;;;;;;;;5075258;28;20173;-83
2022/10/15 05:26:44;;;;;;;;;;;;;;;;;;5076808;28;19913;-82
2022/10/15 05:29:09;;;;;;;;;;;;;;;;;;5082335;28;19916;-84
2022/10/15 05:31:35;;;;;;;;;;;;;;;;;;5063768;28;19924;-81
2022/10/15 05:34:04;;;;;;;;;;;;;;;;;;5085242;28;20239;-81
2022/10/15 05:36:30;;;;;;;;;;;;;;;;;;5075640;28;19912;-82
2022/10/15 05:38:56;;;;;;;;;;;;;;;;;;5075154;28;19924;-82
2022/10/15 05:41:22;;;;;;;;;;;;;;;;;;5076843;28;19987;-81
2022/10/15 05:43:48;;;;;;;;;;;;;;;;;;5079386;28;19953;-81
2022/10/15 05:46:13;;;;;;;;;;;;;;;;;;5077426;28;20172;-84
2022/10/15 05:48:38;;;;;;;;;;;;;;;;;;5080403;28;19910;-81
2022/10/15 05:51:05;;;;;;;;;;;;;;;;;;5062663;28;20213;-84
2022/10/15 05:53:31;;;;;;;;;;;;;;;;;;5067477;28;19963;-82
2022/10/15 05:55:57;;;;;;;;;;;;;;;;;;5078031;28;19913;-82
2022/10/15 05:58:23;;;;;;;;;;;;;;;;;;5080248;28;20209;-82
2022/10/15 06:00:52;;;;;;;;;;;;;;;;;;5076416;28;19921;-87
2022/10/15 06:03:17;;;;;;;;;;;;;;;;;;5073845;28;19913;-84
2022/10/15 06:05:42;;;;;;;;;;;;;;;;;;5076954;28;19920;-83
2022/10/15 06:08:07;;;;;;;;;;;;;;;;;;5076806;28;19954;-82
2022/10/15 06:10:36;;;;;;;;;;;;;;;;;;5078783;28;19920;-82
2022/10/15 06:13:02;;;;;;;;;;;;;;;;;;5082893;28;19951;-83
2022/10/15 06:15:27;;;;;;;;;;;;;;;;;;5084130;28;19924;-85
2022/10/15 06:17:53;;;;;;;;;;;;;;;;;;5084483;28;19988;-81
2022/10/15 06:20:18;;;;;;;;;;;;;;;;;;5078805;28;19920;-81
2022/10/15 06:22:43;;;;;;;;;;;;;;;;;;5079512;28;19916;-88
2022/10/15 06:25:08;;;;;;;;;;;;;;;;;;5079161;28;19947;-81
2022/10/15 06:27:34;;;;;;;;;;;;;;;;;;5066975;28;19924;-86
2022/10/15 06:29:59;;;;;;;;;;;;;;;;;;5093502;28;19912;-82
2022/10/15 06:32:24;;;;;;;;;;;;;;;;;;5060186;28;20120;-81
2022/10/15 06:34:49;;;;;;;;;;;;;;;;;;5067215;28;19919;-82
2022/10/15 06:37:15;;;;;;;;;;;;;;;;;;5077047;28;19923;-82
2022/10/15 06:39:40;;;;;;;;;;;;;;;;;;5087909;28;19923;-82
2022/10/15 06:42:05;;;;;;;;;;;;;;;;;;5062639;28;19948;-84
2022/10/15 06:44:31;;;;;;;;;;;;;;;;;;5068854;28;19950;-82
2022/10/15 06:46:57;;;;;;;;;;;;;;;;;;5066487;28;20215;-86
2022/10/15 06:49:23;;;;;;;;;;;;;;;;;;5069864;28;19918;-83
2022/10/15 06:51:48;;;;;;;;;;;;;;;;;;5092487;28;19912;-81
2022/10/15 06:54:13;;;;;;;;;;;;;;;;;;5075137;28;19913;-85
2022/10/15 06:56:39;;;;;;;;;;;;;;;;;;5082408;28;19917;-81
2022/10/15 06:59:04;;;;;;;;;;;;;;;;;;5085271;28;20189;-80
2022/10/15 07:01:29;;;;;;;;;;;;;;;;;;5079797;28;19917;-81
2022/10/15 07:03:54;;;;;;;;;;;;;;;;;;5081308;28;20116;-85
2022/10/15 07:06:19;;;;;;;;;;;;;;;;;;5079686;28;20119;-87
2022/10/15 07:08:45;;;;;;;;;;;;;;;;;;5082760;28;19916;-81
2022/10/15 07:11:10;;;;;;;;;;;;;;;;;;5082538;28;19983;-86
2022/10/15 07:13:36;;;;;;;;;;;;;;;;;;5083890;28;20197;-83
2022/10/15 07:16:05;;;;;;;;;;;;;;;;;;5063465;28;19917;-81
2022/10/15 07:18:31;;;;;;;;;;;;;;;;;;5064729;28;19924;-85
2022/10/15 07:20:57;;;;;;;;;;;;;;;;;;5078810;28;20108;-83
2022/10/15 07:23:22;;;;;;;;;;;;;;;;;;5085194;28;19976;-89
2022/10/15 07:25:47;;;;;;;;;;;;;;;;;;5088335;28;19961;-89
2022/10/15 07:28:12;;;;;;;;;;;;;;;;;;5078470;28;19913;-81
2022/10/15 07:30:38;;;;;;;;;;;;;;;;;;5075672;28;19920;-86
2022/10/15 07:33:03;;;;;;;;;;;;;;;;;;5061982;28;19916;-82
2022/10/15 07:35:31;;;;;;;;;;;;;;;;;;5081955;28;19980;-81
2022/10/15 07:37:59;;;;;;;;;;;;;;;;;;5081259;28;20199;-82
2022/10/15 07:40:24;;;;;;;;;;;;;;;;;;5080704;28;19917;-84
2022/10/15 07:42:51;;;;;;;;;;;;;;;;;;5103329;28;19983;-83
2022/10/15 07:45:16;;;;;;;;;;;;;;;;;;5084142;28;20175;-83
2022/10/15 07:47:41;;;;;;;;;;;;;;;;;;5060436;28;19917;-83
2022/10/15 07:50:07;;;;;;;;;;;;;;;;;;5091973;28;20337;-84
2022/10/15 07:52:32;;;;;;;;;;;;;;;;;;5074884;28;20146;-82
2022/10/15 07:54:57;;;;;;;;;;;;;;;;;;5059780;28;20127;-83
2022/10/15 07:57:23;;;;;;;;;;;;;;;;;;5078675;28;20015;-82
2022/10/15 07:59:48;;;;;;;;;;;;;;;;;;5078310;28;19925;-84
2022/10/15 08:02:17;;;;;;;;;;;;;;;;;;5082312;28;19975;-83
2022/10/15 08:04:42;;;;;;;;;;;;;;;;;;5089388;28;19940;-83
2022/10/15 08:07:07;;;;;;;;;;;;;;;;;;5082036;28;20093;-83
2022/10/15 08:09:33;;;;;;;;;;;;;;;;;;5085840;28;20205;-83
2022/10/15 08:11:58;;;;;;;;;;;;;;;;;;5080458;28;19913;-82
2022/10/15 08:14:23;;;;;;;;;;;;;;;;;;5077581;28;20201;-83
2022/10/15 08:16:48;;;;;;;;;;;;;;;;;;5074504;28;19959;-83
2022/10/15 08:19:16;;;;;;;;;;;;;;;;;;5080494;28;19924;-83
2022/10/15 08:21:42;;;;;;;;;;;;;;;;;;5082519;28;19916;-82
2022/10/15 08:24:07;;;;;;;;;;;;;;;;;;5080153;28;19928;-82
2022/10/15 08:26:33;;;;;;;;;;;;;;;;;;5081836;28;19909;-82
2022/10/15 08:28:59;;;;;;;;;;;;;;;;;;5075575;28;19913;-82
2022/10/15 08:31:24;;;;;;;;;;;;;;;;;;5086561;28;19931;-81
2022/10/15 08:33:49;;;;;;;;;;;;;;;;;;5076848;28;20197;-82
2022/10/15 08:36:15;;;;;;;;;;;;;;;;;;5080499;28;19920;-81
2022/10/15 08:38:40;;;;;;;;;;;;;;;;;;5062801;28;20028;-82
2022/10/15 08:41:16;;;;;;;;;;;;;;;;;;5073067;28;19916;-82
2022/10/15 08:43:42;;;;;;;;;;;;;;;;;;5082603;28;20193;-81
2022/10/15 08:46:15;;;;;;;;;;;;;;;;;;5069307;28;19923;-82
2022/10/15 08:48:43;;;;;;;;;;;;;;;;;;5058503;28;19944;-83
2022/10/15 08:51:10;;;;;;;;;;;;;;;;;;5058598;28;19921;-83
2022/10/15 08:53:41;;;;;;;;;;;;;;;;;;5061804;28;20216;-83
2022/10/15 08:56:15;;;;;;;;;;;;;;;;;;5055502;28;19921;-83
2022/10/15 08:58:44;;;;;;;;;;;;;;;;;;5060496;28;19924;-82
2022/10/15 09:01:28;;;;;;;;;;;;;;;;;;5058618;28;19963;-83
2022/10/15 09:04:17;;;;;;;;;;;;;;;;;;5062745;28;19920;-82
2022/10/15 09:06:43;;;;;;;;;;;;;;;;;;5050906;28;19948;-82
2022/10/15 09:09:30;;;;;;;;;;;;;;;;;;5056152;28;19935;-82
2022/10/15 09:12:02;;;;;;;;;;;;;;;;;;5055871;28;19917;-83
2022/10/15 09:14:30;;;;;;;;;;;;;;;;;;5058358;28;19960;-83
2022/10/15 09:17:00;;;;;;;;;;;;;;;;;;5062599;28;19920;-82
2022/10/15 09:19:26;;;;;;;;;;;;;;;;;;5058304;28;19920;-82
2022/10/15 09:21:51;;;;;;;;;;;;;;;;;;5058591;28;19913;-83
2022/10/15 09:24:28;;;;;;;;;;;;;;;;;;5060362;28;19924;-82
2022/10/15 09:27:05;;;;;;;;;;;;;;;;;;5064173;28;19920;-83
2022/10/15 09:29:30;;;;;;;;;;;;;;;;;;5053026;28;19974;-83
2022/10/15 09:31:58;;;;;;;;;;;;;;;;;;5058354;28;19908;-82
2022/10/15 09:34:28;;;;;;;;;;;;;;;;;;5060893;28;19925;-83
2022/10/15 09:36:55;;;;;;;;;;;;;;;;;;5060896;28;19912;-83
2022/10/15 09:39:39;;;;;;;;;;;;;;;;;;5072248;28;19932;-90
2022/10/15 09:42:05;;;;;;;;;;;;;;;;;;5071420;28;19916;-81
2022/10/15 09:44:34;;;;;;;;;;;;;;;;;;5079857;28;19932;-81
2022/10/15 09:46:59;;;;;;;;;;;;;;;;;;5089067;28;20314;-82
2022/10/15 09:49:26;;;;;;;;;;;;;;;;;;5086857;28;19909;-81
2022/10/15 09:52:15;;;;;;;;;;;;;;;;;;5093221;28;19919;-79
2022/10/15 09:55:00;;;;;;;;;;;;;;;;;;5091047;28;19912;-81
2022/10/15 09:57:25;;;;;;;;;;;;;;;;;;5096783;28;20203;-80
2022/10/15 09:59:51;;;;;;;;;;;;;;;;;;5089547;28;19916;-80
2022/10/15 10:02:18;;;;;;;;;;;;;;;;;;5083124;28;19916;-80
2022/10/15 10:04:46;;;;;;;;;;;;;;;;;;5084741;28;19917;-80
2022/10/15 10:07:30;;;;;;;;;;;;;;;;;;5076811;28;19913;-81
2022/10/15 10:09:57;;;;;;;;;;;;;;;;;;5087168;28;20241;-80
2022/10/15 10:12:26;;;;;;;;;;;;;;;;;;5093992;28;19916;-79
2022/10/15 10:14:53;;;;;;;;;;;;;;;;;;5064695;28;19917;-79
2022/10/15 10:17:19;;;;;;;;;;;;;;;;;;5086161;28;19916;-80
2022/10/15 10:20:00;;;;;;;;;;;;;;;;;;5085291;28;19928;-80
2022/10/15 10:22:26;;;;;;;;;;;;;;;;;;5087608;28;20050;-82
2022/10/15 10:24:51;;;;;;;;;;;;;;;;;;5068697;28;19924;-80
2022/10/15 10:27:18;;;;;;;;;;;;;;;;;;5089216;28;19923;-81
2022/10/15 10:29:46;;;;;;;;;;;;;;;;;;5089030;28;20242;-80
2022/10/15 10:32:17;;;;;;;;;;;;;;;;;;5086872;28;19916;-80
2022/10/15 10:34:43;;;;;;;;;;;;;;;;;;5080976;28;19912;-81
2022/10/15 10:37:10;;;;;;;;;;;;;;;;;;5079302;28;19938;-81
2022/10/15 10:39:35;;;;;;;;;;;;;;;;;;5080081;28;20098;-80
2022/10/15 10:42:27;;;;;;;;;;;;;;;;;;5082551;28;19919;-80
2022/10/15 10:44:52;;;;;;;;;;;;;;;;;;5081398;28;19928;-79
2022/10/15 10:47:19;;;;;;;;;;;;;;;;;;5087397;28;20219;-80
2022/10/15 10:49:49;;;;;;;;;;;;;;;;;;5085987;28;19954;-79
2022/10/15 10:52:26;;;;;;;;;;;;;;;;;;5086387;28;19916;-80
2022/10/15 10:55:11;;;;;;;;;;;;;;;;;;5087425;28;19917;-79
2022/10/15 10:57:46;;;;;;;;;;;;;;;;;;5075451;28;19932;-79
2022/10/15 11:00:18;;;;;;;;;;;;;;;;;;5083305;28;20011;-79
2022/10/15 11:02:43;;;;;;;;;;;;;;;;;;5083556;28;20197;-79
2022/10/15 11:05:10;;;;;;;;;;;;;;;;;;5079729;28;19935;-79
2022/10/15 11:07:40;;;;;;;;;;;;;;;;;;5079903;28;20212;-79
2022/10/15 11:10:15;;;;;;;;;;;;;;;;;;5080635;28;19925;-79
2022/10/15 11:12:53;;;;;;;;;;;;;;;;;;5080911;28;19961;-79
2022/10/15 11:15:18;;;;;;;;;;;;;;;;;;5092703;28;20089;-79
2022/10/15 11:17:51;;;;;;;;;;;;;;;;;;5082591;28;20380;-80
2022/10/15 11:20:34;;;;;;;;;;;;;;;;;;5059461;28;20252;-79
2022/10/15 11:23:02;;;;;;;;;;;;;;;;;;5088720;28;20267;-79
2022/10/15 11:25:33;;;;;;;;;;;;;;;;;;5078499;28;19920;-78
2022/10/15 11:28:16;;;;;;;;;;;;;;;;;;5087993;28;19939;-79
2022/10/15 11:30:48;;;;;;;;;;;;;;;;;;5083020;28;19917;-79
2022/10/15 11:33:19;;;;;;;;;;;;;;;;;;5077675;28;20139;-79
2022/10/15 11:35:50;;;;;;;;;;;;;;;;;;5072109;28;20003;-79
2022/10/15 11:38:34;;;;;;;;;;;;;;;;;;5088848;28;20136;-78
2022/10/15 11:40:59;;;;;;;;;;;;;;;;;;5058968;28;20171;-79
2022/10/15 11:43:27;;;;;;;;;;;;;;;;;;5085348;28;20220;-79
2022/10/15 11:46:01;;;;;;;;;;;;;;;;;;5079491;28;19947;-79
2022/10/15 11:48:26;;;;;;;;;;;;;;;;;;5064448;28;20231;-78
2022/10/15 11:50:59;;;;;;;;;;;;;;;;;;5082059;28;19912;-79
2022/10/15 11:53:30;;;;;;;;;;;;;;;;;;5076653;28;20007;-79
2022/10/15 11:55:55;;;;;;;;;;;;;;;;;;5074094;28;19951;-79
2022/10/15 11:58:27;;;;;;;;;;;;;;;;;;5079818;28;19916;-79
2022/10/15 12:00:55;;;;;;;;;;;;;;;;;;5078210;28;20207;-79
2022/10/15 12:03:25;;;;;;;;;;;;;;;;;;5061551;28;19913;-78
2022/10/15 12:05:53;;;;;;;;;;;;;;;;;;5080635;28;19916;-78
2022/10/15 12:08:19;;;;;;;;;;;;;;;;;;5083877;28;19916;-79
2022/10/15 12:10:44;;;;;;;;;;;;;;;;;;5082377;28;19932;-78
2022/10/15 12:13:21;;;;;;;;;;;;;;;;;;5082579;28;19991;-79
2022/10/15 12:15:52;;;;;;;;;;;;;;;;;;5087255;28;19951;-78
2022/10/15 12:18:32;;;;;;;;;;;;;;;;;;5070708;28;19983;-79
2022/10/15 12:20:58;;;;;;;;;;;;;;;;;;5072964;28;19989;-79
2022/10/15 12:23:35;;;;;;;;;;;;;;;;;;5072990;28;20214;-82
2022/10/15 12:26:00;;;;;;;;;;;;;;;;;;5078736;28;20090;-79
2022/10/15 12:28:28;;;;;;;;;;;;;;;;;;5076413;28;19979;-80
2022/10/15 12:30:57;;;;;;;;;;;;;;;;;;5073419;28;19924;-81
2022/10/15 12:33:43;;;;;;;;;;;;;;;;;;5091715;28;19920;-81
2022/10/15 12:36:14;;;;;;;;;;;;;;;;;;5076419;28;19925;-79
2022/10/15 12:38:39;;;;;;;;;;;;;;;;;;5060552;28;19916;-80
2022/10/15 12:41:06;;;;;;;;;;;;;;;;;;5079594;28;19920;-81
2022/10/15 12:43:32;;;;;;;;;;;;;;;;;;5084533;28;19951;-81
2022/10/15 12:45:59;;;;;;;;;;;;;;;;;;5081796;28;20205;-79
2022/10/15 12:48:28;;;;;;;;;;;;;;;;;;5088450;28;20252;-80
2022/10/15 12:51:12;;;;;;;;;;;;;;;;;;5072206;28;19996;-80
2022/10/15 12:53:40;;;;;;;;;;;;;;;;;;5076909;28;20123;-79
2022/10/15 12:56:09;;;;;;;;;;;;;;;;;;5076460;28;19917;-79
2022/10/15 12:58:41;;;;;;;;;;;;;;;;;;5069931;28;19924;-80
2022/10/15 13:01:12;;;;;;;;;;;;;;;;;;5066693;28;19959;-79
2022/10/15 13:03:40;;;;;;;;;;;;;;;;;;5069443;28;20347;-78
2022/10/15 13:06:22;;;;;;;;;;;;;;;;;;5068829;28;19932;-81
2022/10/15 13:08:53;;;;;;;;;;;;;;;;;;5066093;28;19970;-79
2022/10/15 13:11:20;;;;;;;;;;;;;;;;;;5073025;28;20223;-79
2022/10/15 13:13:48;;;;;;;;;;;;;;;;;;5060352;28;19931;-82
2022/10/15 13:16:13;;;;;;;;;;;;;;;;;;5073501;28;19925;-80
2022/10/15 13:18:40;;;;;;;;;;;;;;;;;;5080416;28;19970;-82
2022/10/15 13:21:05;;;;;;;;;;;;;;;;;;5082784;28;19924;-80
2022/10/15 13:23:34;;;;;;;;;;;;;;;;;;5083467;28;19916;-79
2022/10/15 13:26:11;;;;;;;;;;;;;;;;;;5085543;28;20116;-79
2022/10/15 13:28:38;;;;;;;;;;;;;;;;;;5075980;28;19934;-79
2022/10/15 13:31:23;;;;;;;;;;;;;;;;;;5080986;28;20023;-79
2022/10/15 13:33:53;;;;;;;;;;;;;;;;;;5077857;28;19932;-80
2022/10/15 13:36:21;;;;;;;;;;;;;;;;;;5061041;28;19935;-79
2022/10/15 13:38:51;;;;;;;;;;;;;;;;;;5060868;28;19938;-80
2022/10/15 13:41:21;;;;;;;;;;;;;;;;;;5080706;28;19912;-80
2022/10/15 13:43:50;;;;;;;;;;;;;;;;;;5082693;28;19916;-80
2022/10/15 13:46:15;;;;;;;;;;;;;;;;;;5075388;28;20201;-79
2022/10/15 13:48:41;;;;;;;;;;;;;;;;;;5076068;28;19940;-80
2022/10/15 13:51:09;;;;;;;;;;;;;;;;;;5076065;28;19917;-79
2022/10/15 13:53:35;;;;;;;;;;;;;;;;;;5071519;28;19920;-80
2022/10/15 13:56:02;;;;;;;;;;;;;;;;;;5077429;28;20271;-79
2022/10/15 13:58:34;;;;;;;;;;;;;;;;;;5078906;28;19916;-80
2022/10/15 14:01:05;;;;;;;;;;;;;;;;;;5078633;28;19952;-80
2022/10/15 14:03:32;;;;;;;;;;;;;;;;;;5080487;28;19916;-79
2022/10/15 14:06:07;;;;;;;;;;;;;;;;;;5080320;28;20134;-79
2022/10/15 14:08:33;;;;;;;;;;;;;;;;;;5075012;28;19916;-79
2022/10/15 14:10:59;;;;;;;;;;;;;;;;;;5074251;28;19917;-80
2022/10/15 14:13:25;;;;;;;;;;;;;;;;;;5072119;28;19916;-79
2022/10/15 14:15:52;;;;;;;;;;;;;;;;;;5076806;28;19920;-79
2022/10/15 14:18:26;;;;;;;;;;;;;;;;;;5078053;28;19977;-79
2022/10/15 14:20:52;;;;;;;;;;;;;;;;;;5069247;28;19928;-79
2022/10/15 14:23:22;;;;;;;;;;;;;;;;;;5066419;28;19959;-79
2022/10/15 14:25:51;;;;;;;;;;;;;;;;;;5080214;28;19924;-78
2022/10/15 14:28:19;;;;;;;;;;;;;;;;;;5077838;28;19938;-78
2022/10/15 14:30:46;;;;;;;;;;;;;;;;;;5072560;28;19916;-79
2022/10/15 14:33:47;;;;;;;;;;;;;;;;;;5083740;28;19912;-79
2022/10/15 14:36:12;;;;;;;;;;;;;;;;;;5019673;28;20416;-78
2022/10/15 14:38:39;;;;;;;;;;;;;;;;;;5065981;28;19963;-79
2022/10/15 14:41:15;;;;;;;;;;;;;;;;;;5087544;28;19920;-79
2022/10/15 14:43:41;;;;;;;;;;;;;;;;;;5080421;28;19925;-78
2022/10/15 14:46:07;;;;;;;;;;;;;;;;;;5083483;28;20422;-79
2022/10/15 14:48:34;;;;;;;;;;;;;;;;;;5090099;28;19912;-79
2022/10/15 14:51:01;;;;;;;;;;;;;;;;;;5077519;28;19919;-78
2022/10/15 14:53:28;;;;;;;;;;;;;;;;;;5078439;28;19920;-79
2022/10/15 14:56:00;;;;;;;;;;;;;;;;;;5073924;28;20133;-79
2022/10/15 14:58:27;;;;;;;;;;;;;;;;;;5079998;28;20208;-79
2022/10/15 15:01:02;;;;;;;;;;;;;;;;;;5077060;28;20137;-80
2022/10/15 15:03:38;;;;;;;;;;;;;;;;;;5080961;28;19924;-79
2022/10/15 15:06:04;;;;;;;;;;;;;;;;;;5078851;28;19913;-78
2022/10/15 15:08:29;;;;;;;;;;;;;;;;;;5082697;28;19912;-79
2022/10/15 15:10:56;;;;;;;;;;;;;;;;;;5082732;28;19919;-78
2022/10/15 15:13:26;;;;;;;;;;;;;;;;;;5083982;28;19959;-78
2022/10/15 15:15:55;;;;;;;;;;;;;;;;;;5075043;28;19916;-78
2022/10/15 15:18:20;;;;;;;;;;;;;;;;;;5076177;28;19913;-78
2022/10/15 15:20:47;;;;;;;;;;;;;;;;;;5077763;28;20224;-78
2022/10/15 15:23:14;;;;;;;;;;;;;;;;;;5073864;28;20268;-78
2022/10/15 15:25:40;;;;;;;;;;;;;;;;;;5087660;28;19991;-78
2022/10/15 15:28:10;;;;;;;;;;;;;;;;;;5066385;28;20112;-78
2022/10/15 15:30:38;;;;;;;;;;;;;;;;;;5051331;28;19913;-78
2022/10/15 15:33:03;;;;;;;;;;;;;;;;;;5074626;28;19923;-78
2022/10/15 15:35:34;;;;;;;;;;;;;;;;;;5069336;28;19920;-79
2022/10/15 15:37:59;;;;;;;;;;;;;;;;;;5069747;28;20116;-78
2022/10/15 15:40:24;;;;;;;;;;;;;;;;;;5069027;28;19924;-79
2022/10/15 15:42:50;;;;;;;;;;;;;;;;;;5073962;28;20169;-78
2022/10/15 15:45:20;;;;;;;;;;;;;;;;;;5074631;28;19913;-79
2022/10/15 15:47:46;;;;;;;;;;;;;;;;;;5071559;28;19963;-78
2022/10/15 15:50:11;;;;;;;;;;;;;;;;;;5070019;28;19924;-78
2022/10/15 15:52:37;;;;;;;;;;;;;;;;;;5074179;28;19965;-78
2022/10/15 15:55:02;;;;;;;;;;;;;;;;;;5077482;28;19916;-78
2022/10/15 15:57:27;;;;;;;;;;;;;;;;;;5085588;28;19913;-78
2022/10/15 15:59:52;;;;;;;;;;;;;;;;;;5081967;28;20143;-77
2022/10/15 16:02:18;;;;;;;;;;;;;;;;;;5083473;28;19924;-79
2022/10/15 16:04:44;;;;;;;;;;;;;;;;;;5082437;28;19974;-79
2022/10/15 16:07:10;;;;;;;;;;;;;;;;;;5076311;28;19952;-78
2022/10/15 16:09:35;;;;;;;;;;;;;;;;;;5082176;28;19920;-78
2022/10/15 16:12:00;;;;;;;;;;;;;;;;;;5079234;28;20161;-77
2022/10/15 16:14:26;;;;;;;;;;;;;;;;;;5080796;28;19917;-78
2022/10/15 16:16:51;;;;;;;;;;;;;;;;;;5079601;28;19947;-78
2022/10/15 16:19:16;;;;;;;;;;;;;;;;;;5078562;28;19951;-78
2022/10/15 16:21:41;;;;;;;;;;;;;;;;;;5089709;28;19916;-78
2022/10/15 16:24:07;;;;;;;;;;;;;;;;;;5081185;28;19940;-78
2022/10/15 16:26:32;;;;;;;;;;;;;;;;;;5063992;28;19913;-78
2022/10/15 16:28:57;;;;;;;;;;;;;;;;;;5074589;28;19916;-78
2022/10/15 16:31:24;;;;;;;;;;;;;;;;;;5089225;28;19918;-78
2022/10/15 16:33:49;;;;;;;;;;;;;;;;;;5074234;28;19924;-78
2022/10/15 16:36:15;;;;;;;;;;;;;;;;;;5075020;28;19912;-78
2022/10/15 16:38:41;;;;;;;;;;;;;;;;;;5059618;28;19916;-78
2022/10/15 16:41:07;;;;;;;;;;;;;;;;;;5075784;28;19917;-78
2022/10/15 16:43:33;;;;;;;;;;;;;;;;;;5085402;28;19920;-78
2022/10/15 16:45:59;;;;;;;;;;;;;;;;;;5084154;28;19969;-78
2022/10/15 16:48:25;;;;;;;;;;;;;;;;;;5084328;28;19991;-78
2022/10/15 16:50:59;;;;;;;;;;;;;;;;;;5074968;28;19917;-79
2022/10/15 16:53:24;;;;;;;;;;;;;;;;;;5080864;28;19923;-78